sensor_id;sensor_type;location;lat;lon;timestamp;temperature;humidity
3281;DHT22;1652;51.318;6.202;2023-09-19T00:00:44;16.00;99.90
3281;DHT22;1652;51.318;6.202;2023-09-19T00:03:14;16.00;99.90
3281;DHT22;1652;51.318;6.202;2023-09-19T00:05:41;15.90;99.90
3281;DHT22;1652;51.318;6.202;2023-09-19T00:08:12;15.90;99.90
3281;DHT22;1652;51.318;6.202;2023-09-19T00:10:43;16.00;99.90
3281;DHT22;1652;51.318;6.202;2023-09-19T00:13:10;16.00;99.90
3281;DHT22;1652;51.318;6.202;2023-09-19T00:15:44;16.00;99.90
3281;DHT22;1652;51.318;6.202;2023-09-19T00:18:22;15.90;99.90
3281;DHT22;1652;51.318;6.202;2023-09-19T00:20:50;15.90;99.90
3281;DHT22;1652;51.318;6.202;2023-09-19T00:23:19;15.90;99.90
3281;DHT22;1652;51.318;6.202;2023-09-19T00:25:47;15.90;99.90
3281;DHT22;1652;51.318;6.202;2023-09-19T00:28:14;15.80;99.90
3281;DHT22;1652;51.318;6.202;2023-09-19T00:30:45;15.90;99.90
3281;DHT22;1652;51.318;6.202;2023-09-19T00:33:17;15.80;99.90
3281;DHT22;1652;51.318;6.202;2023-09-19T00:35:53;15.80;99.90
3281;DHT22;1652;51.318;6.202;2023-09-19T00:38:21;15.80;99.90
3281;DHT22;1652;51.318;6.202;2023-09-19T00:40:50;15.80;99.90
3281;DHT22;1652;51.318;6.202;2023-09-19T00:43:20;15.70;99.90
3281;DHT22;1652;51.318;6.202;2023-09-19T00:45:49;15.70;99.90
3281;DHT22;1652;51.318;6.202;2023-09-19T00:48:19;15.70;99.90
3281;DHT22;1652;51.318;6.202;2023-09-19T00:50:47;15.70;99.90
3281;DHT22;1652;51.318;6.202;2023-09-19T00:53:18;15.70;99.90
3281;DHT22;1652;51.318;6.202;2023-09-19T00:55:47;15.70;99.90
3281;DHT22;1652;51.318;6.202;2023-09-19T00:58:17;15.60;99.90
3281;DHT22;1652;51.318;6.202;2023-09-19T01:00:44;15.60;99.90
3281;DHT22;1652;51.318;6.202;2023-09-19T01:03:11;15.70;99.90
3281;DHT22;1652;51.318;6.202;2023-09-19T01:05:40;15.50;99.90
3281;DHT22;1652;51.318;6.202;2023-09-19T01:08:07;15.40;99.90
3281;DHT22;1652;51.318;6.202;2023-09-19T01:10:35;15.40;99.90
3281;DHT22;1652;51.318;6.202;2023-09-19T01:16:11;15.50;99.90
3281;DHT22;1652;51.318;6.202;2023-09-19T01:18:51;15.40;99.90
3281;DHT22;1652;51.318;6.202;2023-09-19T01:21:29;15.40;99.90
3281;DHT22;1652;51.318;6.202;2023-09-19T01:29:38;15.30;99.90
3281;DHT22;1652;51.318;6.202;2023-09-19T01:32:08;15.20;99.90
3281;DHT22;1652;51.318;6.202;2023-09-19T01:34:53;15.30;99.90
3281;DHT22;1652;51.318;6.202;2023-09-19T01:37:23;15.20;99.90
3281;DHT22;1652;51.318;6.202;2023-09-19T01:40:05;15.20;99.90
3281;DHT22;1652;51.318;6.202;2023-09-19T01:42:58;15.30;99.90
3281;DHT22;1652;51.318;6.202;2023-09-19T01:50:52;15.30;99.90
3281;DHT22;1652;51.318;6.202;2023-09-19T01:53:35;15.30;99.90
3281;DHT22;1652;51.318;6.202;2023-09-19T01:56:05;15.20;99.90
3281;DHT22;1652;51.318;6.202;2023-09-19T01:58:52;15.30;99.90
3281;DHT22;1652;51.318;6.202;2023-09-19T02:01:24;15.30;99.90
3281;DHT22;1652;51.318;6.202;2023-09-19T02:03:52;15.20;99.90
3281;DHT22;1652;51.318;6.202;2023-09-19T02:06:20;15.20;99.90
3281;DHT22;1652;51.318;6.202;2023-09-19T02:08:49;15.20;99.90
3281;DHT22;1652;51.318;6.202;2023-09-19T02:11:16;15.20;99.90
3281;DHT22;1652;51.318;6.202;2023-09-19T02:13:43;15.20;99.90
3281;DHT22;1652;51.318;6.202;2023-09-19T02:16:10;15.10;99.90
3281;DHT22;1652;51.318;6.202;2023-09-19T02:18:38;15.10;99.90
3281;DHT22;1652;51.318;6.202;2023-09-19T02:21:06;15.00;99.90
3281;DHT22;1652;51.318;6.202;2023-09-19T02:23:39;15.00;99.90
3281;DHT22;1652;51.318;6.202;2023-09-19T02:26:06;15.00;99.90
3281;DHT22;1652;51.318;6.202;2023-09-19T02:28:34;15.00;99.90
3281;DHT22;1652;51.318;6.202;2023-09-19T02:31:02;15.00;99.90
3281;DHT22;1652;51.318;6.202;2023-09-19T02:33:32;15.00;99.90
3281;DHT22;1652;51.318;6.202;2023-09-19T02:35:59;15.00;99.90
3281;DHT22;1652;51.318;6.202;2023-09-19T02:38:28;15.10;99.90
3281;DHT22;1652;51.318;6.202;2023-09-19T02:40:55;15.10;99.90
3281;DHT22;1652;51.318;6.202;2023-09-19T02:43:23;15.10;99.90
3281;DHT22;1652;51.318;6.202;2023-09-19T02:45:50;15.10;99.90
3281;DHT22;1652;51.318;6.202;2023-09-19T02:48:20;15.10;99.90
3281;DHT22;1652;51.318;6.202;2023-09-19T02:50:50;15.10;99.90
3281;DHT22;1652;51.318;6.202;2023-09-19T02:53:17;15.10;99.90
3281;DHT22;1652;51.318;6.202;2023-09-19T02:55:44;15.10;99.90
3281;DHT22;1652;51.318;6.202;2023-09-19T02:58:11;15.00;99.90
3281;DHT22;1652;51.318;6.202;2023-09-19T03:00:38;15.00;99.90
3281;DHT22;1652;51.318;6.202;2023-09-19T03:03:05;15.00;99.90
3281;DHT22;1652;51.318;6.202;2023-09-19T03:05:33;14.90;99.90
3281;DHT22;1652;51.318;6.202;2023-09-19T03:08:00;15.00;99.90
3281;DHT22;1652;51.318;6.202;2023-09-19T03:10:27;15.00;99.90
3281;DHT22;1652;51.318;6.202;2023-09-19T03:12:54;14.90;99.90
3281;DHT22;1652;51.318;6.202;2023-09-19T03:15:21;14.90;99.90
3281;DHT22;1652;51.318;6.202;2023-09-19T03:17:49;14.80;99.90
3281;DHT22;1652;51.318;6.202;2023-09-19T03:20:16;14.90;99.90
3281;DHT22;1652;51.318;6.202;2023-09-19T03:22:48;14.90;99.90
3281;DHT22;1652;51.318;6.202;2023-09-19T03:25:15;14.80;99.90
3281;DHT22;1652;51.318;6.202;2023-09-19T03:27:44;14.80;99.90
3281;DHT22;1652;51.318;6.202;2023-09-19T03:30:11;14.70;99.90
3281;DHT22;1652;51.318;6.202;2023-09-19T03:32:47;14.80;99.90
3281;DHT22;1652;51.318;6.202;2023-09-19T03:35:17;14.80;99.90
3281;DHT22;1652;51.318;6.202;2023-09-19T03:37:45;14.80;99.90
3281;DHT22;1652;51.318;6.202;2023-09-19T03:40:12;14.80;99.90
3281;DHT22;1652;51.318;6.202;2023-09-19T03:42:42;14.80;99.90
3281;DHT22;1652;51.318;6.202;2023-09-19T03:45:09;14.70;99.90
3281;DHT22;1652;51.318;6.202;2023-09-19T03:47:40;14.70;99.90
3281;DHT22;1652;51.318;6.202;2023-09-19T03:50:08;14.70;99.90
3281;DHT22;1652;51.318;6.202;2023-09-19T03:52:37;14.70;99.90
3281;DHT22;1652;51.318;6.202;2023-09-19T03:55:04;14.70;99.90
3281;DHT22;1652;51.318;6.202;2023-09-19T03:57:32;14.70;99.90
3281;DHT22;1652;51.318;6.202;2023-09-19T03:59:59;14.70;99.90
3281;DHT22;1652;51.318;6.202;2023-09-19T04:02:26;14.70;99.90
3281;DHT22;1652;51.318;6.202;2023-09-19T04:04:59;14.70;99.90
3281;DHT22;1652;51.318;6.202;2023-09-19T04:07:26;14.70;99.90
3281;DHT22;1652;51.318;6.202;2023-09-19T04:09:55;14.60;99.90
3281;DHT22;1652;51.318;6.202;2023-09-19T04:12:23;14.70;99.90
3281;DHT22;1652;51.318;6.202;2023-09-19T04:14:50;14.70;99.90
3281;DHT22;1652;51.318;6.202;2023-09-19T04:17:17;14.70;99.90
3281;DHT22;1652;51.318;6.202;2023-09-19T04:19:45;14.70;99.90
3281;DHT22;1652;51.318;6.202;2023-09-19T04:22:12;14.70;99.90
3281;DHT22;1652;51.318;6.202;2023-09-19T04:24:39;14.70;99.90
3281;DHT22;1652;51.318;6.202;2023-09-19T04:27:06;14.70;99.90
3281;DHT22;1652;51.318;6.202;2023-09-19T04:29:34;14.70;99.90
3281;DHT22;1652;51.318;6.202;2023-09-19T04:32:01;14.70;99.90
3281;DHT22;1652;51.318;6.202;2023-09-19T04:34:33;14.70;99.90
3281;DHT22;1652;51.318;6.202;2023-09-19T04:37:01;14.70;99.90
3281;DHT22;1652;51.318;6.202;2023-09-19T04:39:28;14.70;99.90
3281;DHT22;1652;51.318;6.202;2023-09-19T04:41:55;14.70;99.90
3281;DHT22;1652;51.318;6.202;2023-09-19T04:44:23;14.70;99.90
3281;DHT22;1652;51.318;6.202;2023-09-19T04:46:50;14.70;99.90
3281;DHT22;1652;51.318;6.202;2023-09-19T04:49:17;14.70;99.90
3281;DHT22;1652;51.318;6.202;2023-09-19T04:51:45;14.70;99.90
3281;DHT22;1652;51.318;6.202;2023-09-19T04:54:13;14.60;99.90
3281;DHT22;1652;51.318;6.202;2023-09-19T04:56:42;14.70;99.90
3281;DHT22;1652;51.318;6.202;2023-09-19T04:59:09;14.70;99.90
3281;DHT22;1652;51.318;6.202;2023-09-19T05:01:37;14.70;99.90
3281;DHT22;1652;51.318;6.202;2023-09-19T05:04:04;14.60;99.90
3281;DHT22;1652;51.318;6.202;2023-09-19T05:06:32;14.70;99.90
3281;DHT22;1652;51.318;6.202;2023-09-19T05:09:00;14.70;99.90
3281;DHT22;1652;51.318;6.202;2023-09-19T05:11:27;14.80;99.90
3281;DHT22;1652;51.318;6.202;2023-09-19T05:13:55;14.90;99.90
3281;DHT22;1652;51.318;6.202;2023-09-19T05:16:22;15.00;99.90
3281;DHT22;1652;51.318;6.202;2023-09-19T05:18:49;15.00;99.90
3281;DHT22;1652;51.318;6.202;2023-09-19T05:21:16;15.00;99.90
3281;DHT22;1652;51.318;6.202;2023-09-19T05:23:44;15.00;99.90
3281;DHT22;1652;51.318;6.202;2023-09-19T05:26:11;15.10;99.90
3281;DHT22;1652;51.318;6.202;2023-09-19T05:28:39;15.10;99.90
3281;DHT22;1652;51.318;6.202;2023-09-19T05:31:06;15.10;99.90
3281;DHT22;1652;51.318;6.202;2023-09-19T05:33:33;15.20;99.90
3281;DHT22;1652;51.318;6.202;2023-09-19T05:36:00;15.20;99.90
3281;DHT22;1652;51.318;6.202;2023-09-19T05:38:27;15.20;99.90
3281;DHT22;1652;51.318;6.202;2023-09-19T05:40:54;15.20;99.90
3281;DHT22;1652;51.318;6.202;2023-09-19T05:43:21;15.30;99.90
3281;DHT22;1652;51.318;6.202;2023-09-19T05:45:48;15.40;99.90
3281;DHT22;1652;51.318;6.202;2023-09-19T05:48:19;15.30;99.90
3281;DHT22;1652;51.318;6.202;2023-09-19T05:50:46;15.40;99.90
3281;DHT22;1652;51.318;6.202;2023-09-19T05:53:15;15.50;99.90
3281;DHT22;1652;51.318;6.202;2023-09-19T05:55:42;15.50;99.90
3281;DHT22;1652;51.318;6.202;2023-09-19T05:58:10;15.50;99.90
3281;DHT22;1652;51.318;6.202;2023-09-19T06:00:42;15.60;99.90
3281;DHT22;1652;51.318;6.202;2023-09-19T06:03:11;15.60;99.90
3281;DHT22;1652;51.318;6.202;2023-09-19T06:05:38;15.60;99.90
3281;DHT22;1652;51.318;6.202;2023-09-19T06:08:06;15.70;99.90
3281;DHT22;1652;51.318;6.202;2023-09-19T06:10:35;15.60;99.90
3281;DHT22;1652;51.318;6.202;2023-09-19T06:13:03;15.60;99.90
3281;DHT22;1652;51.318;6.202;2023-09-19T06:15:35;15.60;99.90
3281;DHT22;1652;51.318;6.202;2023-09-19T06:18:02;15.60;99.90
3281;DHT22;1652;51.318;6.202;2023-09-19T06:20:32;15.70;99.90
3281;DHT22;1652;51.318;6.202;2023-09-19T06:23:00;15.70;99.90
3281;DHT22;1652;51.318;6.202;2023-09-19T06:25:29;15.70;99.90
3281;DHT22;1652;51.318;6.202;2023-09-19T06:27:56;15.80;99.90
3281;DHT22;1652;51.318;6.202;2023-09-19T06:30:24;15.80;99.90
3281;DHT22;1652;51.318;6.202;2023-09-19T06:32:56;15.90;99.90
3281;DHT22;1652;51.318;6.202;2023-09-19T06:35:24;15.90;99.90
3281;DHT22;1652;51.318;6.202;2023-09-19T06:37:53;15.80;99.90
3281;DHT22;1652;51.318;6.202;2023-09-19T06:40:20;15.80;99.90
3281;DHT22;1652;51.318;6.202;2023-09-19T06:42:51;15.90;99.90
3281;DHT22;1652;51.318;6.202;2023-09-19T06:45:22;16.00;99.90
3281;DHT22;1652;51.318;6.202;2023-09-19T06:47:50;16.10;99.90
3281;DHT22;1652;51.318;6.202;2023-09-19T06:50:20;16.20;99.90
3281;DHT22;1652;51.318;6.202;2023-09-19T06:52:54;16.30;99.90
3281;DHT22;1652;51.318;6.202;2023-09-19T06:55:22;16.30;99.90
3281;DHT22;1652;51.318;6.202;2023-09-19T06:57:55;16.50;99.90
3281;DHT22;1652;51.318;6.202;2023-09-19T07:00:22;16.60;99.90
3281;DHT22;1652;51.318;6.202;2023-09-19T07:02:59;16.70;99.90
3281;DHT22;1652;51.318;6.202;2023-09-19T07:05:28;16.80;99.90
3281;DHT22;1652;51.318;6.202;2023-09-19T07:07:55;16.90;63.00
3281;DHT22;1652;51.318;6.202;2023-09-19T07:10:22;16.90;64.00
3281;DHT22;1652;51.318;6.202;2023-09-19T07:12:59;16.80;77.60
3281;DHT22;1652;51.318;6.202;2023-09-19T07:15:26;16.80;70.70
3281;DHT22;1652;51.318;6.202;2023-09-19T07:17:54;16.80;57.90
3281;DHT22;1652;51.318;6.202;2023-09-19T07:20:24;16.90;85.00
3281;DHT22;1652;51.318;6.202;2023-09-19T07:22:53;17.10;47.70
3281;DHT22;1652;51.318;6.202;2023-09-19T07:25:23;17.30;1.00
3281;DHT22;1652;51.318;6.202;2023-09-19T07:27:50;17.30;5.40
3281;DHT22;1652;51.318;6.202;2023-09-19T07:30:17;17.40;23.40
3281;DHT22;1652;51.318;6.202;2023-09-19T07:32:45;17.40;1.00
3281;DHT22;1652;51.318;6.202;2023-09-19T07:35:11;17.50;1.00
3281;DHT22;1652;51.318;6.202;2023-09-19T07:37:39;17.60;1.00
3281;DHT22;1652;51.318;6.202;2023-09-19T07:40:06;17.60;1.00
3281;DHT22;1652;51.318;6.202;2023-09-19T07:42:36;17.70;1.00
3281;DHT22;1652;51.318;6.202;2023-09-19T07:45:06;17.90;1.00
3281;DHT22;1652;51.318;6.202;2023-09-19T07:47:34;18.20;1.00
3281;DHT22;1652;51.318;6.202;2023-09-19T07:50:03;18.60;1.00
3281;DHT22;1652;51.318;6.202;2023-09-19T07:52:30;18.80;99.90
3281;DHT22;1652;51.318;6.202;2023-09-19T07:54:57;18.70;99.90
3281;DHT22;1652;51.318;6.202;2023-09-19T07:57:24;18.80;99.90
3281;DHT22;1652;51.318;6.202;2023-09-19T07:59:51;18.70;99.90
3281;DHT22;1652;51.318;6.202;2023-09-19T08:02:18;18.80;1.00
3281;DHT22;1652;51.318;6.202;2023-09-19T08:04:45;18.80;1.00
3281;DHT22;1652;51.318;6.202;2023-09-19T08:07:13;18.80;1.00
3281;DHT22;1652;51.318;6.202;2023-09-19T08:09:40;19.00;1.00
3281;DHT22;1652;51.318;6.202;2023-09-19T08:12:07;19.00;1.00
3281;DHT22;1652;51.318;6.202;2023-09-19T08:14:37;18.90;99.90
3281;DHT22;1652;51.318;6.202;2023-09-19T08:17:08;18.90;98.40
3281;DHT22;1652;51.318;6.202;2023-09-19T08:19:35;19.00;1.00
3281;DHT22;1652;51.318;6.202;2023-09-19T08:22:03;19.10;99.90
3281;DHT22;1652;51.318;6.202;2023-09-19T08:24:30;19.10;1.00
3281;DHT22;1652;51.318;6.202;2023-09-19T08:26:57;19.20;1.00
3281;DHT22;1652;51.318;6.202;2023-09-19T08:29:25;19.20;99.90
3281;DHT22;1652;51.318;6.202;2023-09-19T08:31:58;19.20;99.90
3281;DHT22;1652;51.318;6.202;2023-09-19T08:34:26;19.00;1.00
3281;DHT22;1652;51.318;6.202;2023-09-19T08:36:54;18.90;1.00
3281;DHT22;1652;51.318;6.202;2023-09-19T08:39:24;18.80;1.00
3281;DHT22;1652;51.318;6.202;2023-09-19T08:42:01;18.90;1.00
3281;DHT22;1652;51.318;6.202;2023-09-19T08:44:41;19.20;1.00
3281;DHT22;1652;51.318;6.202;2023-09-19T08:47:11;19.30;1.00
3281;DHT22;1652;51.318;6.202;2023-09-19T08:52:20;19.20;1.00
3281;DHT22;1652;51.318;6.202;2023-09-19T08:54:52;19.10;1.00
3281;DHT22;1652;51.318;6.202;2023-09-19T08:57:23;19.10;1.00
3281;DHT22;1652;51.318;6.202;2023-09-19T08:59:50;18.90;1.00
3281;DHT22;1652;51.318;6.202;2023-09-19T09:02:18;18.80;54.00
3281;DHT22;1652;51.318;6.202;2023-09-19T09:04:46;18.80;1.00
3281;DHT22;1652;51.318;6.202;2023-09-19T09:07:14;18.80;1.00
3281;DHT22;1652;51.318;6.202;2023-09-19T09:09:41;18.90;99.90
3281;DHT22;1652;51.318;6.202;2023-09-19T09:12:12;19.00;99.90
3281;DHT22;1652;51.318;6.202;2023-09-19T09:14:40;19.00;1.00
3281;DHT22;1652;51.318;6.202;2023-09-19T09:17:11;19.20;99.90
3281;DHT22;1652;51.318;6.202;2023-09-19T09:19:38;19.10;1.00
3281;DHT22;1652;51.318;6.202;2023-09-19T09:22:09;19.20;1.00
3281;DHT22;1652;51.318;6.202;2023-09-19T09:24:38;19.20;1.00
3281;DHT22;1652;51.318;6.202;2023-09-19T09:27:17;19.30;1.00
3281;DHT22;1652;51.318;6.202;2023-09-19T09:29:48;19.40;99.90
3281;DHT22;1652;51.318;6.202;2023-09-19T09:32:26;19.60;32.80
3281;DHT22;1652;51.318;6.202;2023-09-19T09:34:58;19.60;35.20
3281;DHT22;1652;51.318;6.202;2023-09-19T09:37:28;19.50;99.90
3281;DHT22;1652;51.318;6.202;2023-09-19T09:40:02;19.40;1.00
3281;DHT22;1652;51.318;6.202;2023-09-19T09:42:41;19.20;99.90
3281;DHT22;1652;51.318;6.202;2023-09-19T09:47:47;19.10;1.00
3281;DHT22;1652;51.318;6.202;2023-09-19T09:50:31;19.10;1.00
3281;DHT22;1652;51.318;6.202;2023-09-19T09:53:24;19.10;1.00
3281;DHT22;1652;51.318;6.202;2023-09-19T09:56:04;18.80;38.80
3281;DHT22;1652;51.318;6.202;2023-09-19T09:58:48;18.80;1.00
3281;DHT22;1652;51.318;6.202;2023-09-19T10:01:16;18.90;1.00
3281;DHT22;1652;51.318;6.202;2023-09-19T10:03:44;19.00;99.90
3281;DHT22;1652;51.318;6.202;2023-09-19T10:06:16;19.00;1.00
3281;DHT22;1652;51.318;6.202;2023-09-19T10:09:05;19.10;1.00
3281;DHT22;1652;51.318;6.202;2023-09-19T10:11:45;19.10;1.00
3281;DHT22;1652;51.318;6.202;2023-09-19T10:14:15;19.10;1.00
3281;DHT22;1652;51.318;6.202;2023-09-19T10:16:49;19.20;99.90
3281;DHT22;1652;51.318;6.202;2023-09-19T10:19:28;19.20;99.90
3281;DHT22;1652;51.318;6.202;2023-09-19T10:21:57;19.10;1.00
3281;DHT22;1652;51.318;6.202;2023-09-19T10:24:26;19.00;1.00
3281;DHT22;1652;51.318;6.202;2023-09-19T10:26:55;19.00;99.90
3281;DHT22;1652;51.318;6.202;2023-09-19T10:29:23;19.10;1.00
3281;DHT22;1652;51.318;6.202;2023-09-19T10:31:53;19.30;1.00
3281;DHT22;1652;51.318;6.202;2023-09-19T10:34:22;19.50;1.00
3281;DHT22;1652;51.318;6.202;2023-09-19T10:36:51;19.60;99.90
3281;DHT22;1652;51.318;6.202;2023-09-19T10:39:19;19.80;1.00
3281;DHT22;1652;51.318;6.202;2023-09-19T10:41:50;19.70;16.10
3281;DHT22;1652;51.318;6.202;2023-09-19T10:44:26;19.60;1.00
3281;DHT22;1652;51.318;6.202;2023-09-19T10:46:53;19.60;1.00
3281;DHT22;1652;51.318;6.202;2023-09-19T10:49:21;19.70;99.90
3281;DHT22;1652;51.318;6.202;2023-09-19T10:51:54;19.70;99.90
3281;DHT22;1652;51.318;6.202;2023-09-19T10:54:27;19.70;1.00
3281;DHT22;1652;51.318;6.202;2023-09-19T10:56:57;19.70;1.00
3281;DHT22;1652;51.318;6.202;2023-09-19T10:59:26;19.50;99.90
3281;DHT22;1652;51.318;6.202;2023-09-19T11:02:16;19.40;99.90
3281;DHT22;1652;51.318;6.202;2023-09-19T11:04:44;19.50;99.90
3281;DHT22;1652;51.318;6.202;2023-09-19T11:07:15;19.60;99.90
3281;DHT22;1652;51.318;6.202;2023-09-19T11:09:55;19.60;99.90
3281;DHT22;1652;51.318;6.202;2023-09-19T11:14:56;19.80;1.00
3281;DHT22;1652;51.318;6.202;2023-09-19T11:17:36;19.70;1.00
3281;DHT22;1652;51.318;6.202;2023-09-19T11:30:48;19.80;99.90
3281;DHT22;1652;51.318;6.202;2023-09-19T11:33:27;19.90;1.00
3281;DHT22;1652;51.318;6.202;2023-09-19T11:44:33;20.40;99.90
3281;DHT22;1652;51.318;6.202;2023-09-19T11:49:26;20.30;99.90
3281;DHT22;1652;51.318;6.202;2023-09-19T11:51:57;20.20;43.80
3281;DHT22;1652;51.318;6.202;2023-09-19T11:54:24;20.20;99.90
3281;DHT22;1652;51.318;6.202;2023-09-19T11:56:55;20.20;1.00
3281;DHT22;1652;51.318;6.202;2023-09-19T11:59:26;20.30;1.00
3281;DHT22;1652;51.318;6.202;2023-09-19T12:02:01;20.40;1.00
3281;DHT22;1652;51.318;6.202;2023-09-19T12:04:39;20.30;7.90
3281;DHT22;1652;51.318;6.202;2023-09-19T12:07:09;20.10;99.90
3281;DHT22;1652;51.318;6.202;2023-09-19T12:09:48;20.20;1.00
3281;DHT22;1652;51.318;6.202;2023-09-19T12:12:24;20.30;99.90
3281;DHT22;1652;51.318;6.202;2023-09-19T12:14:55;20.30;1.00
3281;DHT22;1652;51.318;6.202;2023-09-19T12:17:46;20.20;99.90
3281;DHT22;1652;51.318;6.202;2023-09-19T12:20:11;20.30;99.90
3281;DHT22;1652;51.318;6.202;2023-09-19T12:22:42;20.40;1.00
3281;DHT22;1652;51.318;6.202;2023-09-19T12:25:11;20.40;1.00
3281;DHT22;1652;51.318;6.202;2023-09-19T12:27:49;20.40;99.90
3281;DHT22;1652;51.318;6.202;2023-09-19T12:30:20;20.30;1.00
3281;DHT22;1652;51.318;6.202;2023-09-19T12:32:54;20.40;1.00
3281;DHT22;1652;51.318;6.202;2023-09-19T12:35:33;20.50;1.00
3281;DHT22;1652;51.318;6.202;2023-09-19T12:38:03;20.50;79.20
3281;DHT22;1652;51.318;6.202;2023-09-19T12:40:31;20.70;1.00
3281;DHT22;1652;51.318;6.202;2023-09-19T12:43:01;20.90;1.00
3281;DHT22;1652;51.318;6.202;2023-09-19T12:45:32;20.90;99.90
3281;DHT22;1652;51.318;6.202;2023-09-19T12:48:25;20.90;1.00
3281;DHT22;1652;51.318;6.202;2023-09-19T12:51:07;21.00;1.00
3281;DHT22;1652;51.318;6.202;2023-09-19T12:53:38;21.00;1.00
3281;DHT22;1652;51.318;6.202;2023-09-19T12:56:11;21.10;99.90
3281;DHT22;1652;51.318;6.202;2023-09-19T12:58:56;21.10;1.00
3281;DHT22;1652;51.318;6.202;2023-09-19T13:01:25;21.10;99.90
3281;DHT22;1652;51.318;6.202;2023-09-19T13:06:47;21.20;1.00
3281;DHT22;1652;51.318;6.202;2023-09-19T13:09:20;21.10;99.90
3281;DHT22;1652;51.318;6.202;2023-09-19T13:11:47;21.10;1.00
3281;DHT22;1652;51.318;6.202;2023-09-19T13:14:21;21.00;1.00
3281;DHT22;1652;51.318;6.202;2023-09-19T13:17:08;21.00;1.00
3281;DHT22;1652;51.318;6.202;2023-09-19T13:19:45;20.90;1.00
3281;DHT22;1652;51.318;6.202;2023-09-19T13:25:21;20.80;1.00
3281;DHT22;1652;51.318;6.202;2023-09-19T13:27:53;20.80;1.00
3281;DHT22;1652;51.318;6.202;2023-09-19T13:30:25;20.60;99.90
3281;DHT22;1652;51.318;6.202;2023-09-19T13:33:03;20.70;1.00
3281;DHT22;1652;51.318;6.202;2023-09-19T13:35:31;20.60;99.90
3281;DHT22;1652;51.318;6.202;2023-09-19T13:37:57;20.60;99.90
3281;DHT22;1652;51.318;6.202;2023-09-19T13:40:25;20.60;99.90
3281;DHT22;1652;51.318;6.202;2023-09-19T13:42:57;20.50;9.70
3281;DHT22;1652;51.318;6.202;2023-09-19T13:45:24;20.50;99.90
3281;DHT22;1652;51.318;6.202;2023-09-19T13:47:53;20.50;99.90
3281;DHT22;1652;51.318;6.202;2023-09-19T13:50:21;20.50;99.90
3281;DHT22;1652;51.318;6.202;2023-09-19T13:52:51;20.60;99.90
3281;DHT22;1652;51.318;6.202;2023-09-19T13:55:18;20.50;1.00
3281;DHT22;1652;51.318;6.202;2023-09-19T13:57:48;20.50;99.90
3281;DHT22;1652;51.318;6.202;2023-09-19T14:00:16;20.60;99.90
3281;DHT22;1652;51.318;6.202;2023-09-19T14:02:44;20.60;99.90
3281;DHT22;1652;51.318;6.202;2023-09-19T14:05:12;20.80;99.90
3281;DHT22;1652;51.318;6.202;2023-09-19T14:07:42;20.90;99.90
3281;DHT22;1652;51.318;6.202;2023-09-19T14:10:10;20.80;52.10
3281;DHT22;1652;51.318;6.202;2023-09-19T14:12:38;20.80;99.90
3281;DHT22;1652;51.318;6.202;2023-09-19T14:15:08;20.60;1.00
3281;DHT22;1652;51.318;6.202;2023-09-19T14:17:35;20.40;24.30
3281;DHT22;1652;51.318;6.202;2023-09-19T14:20:02;20.40;1.00
3281;DHT22;1652;51.318;6.202;2023-09-19T14:22:31;20.50;99.90
3281;DHT22;1652;51.318;6.202;2023-09-19T14:24:58;20.50;1.00
3281;DHT22;1652;51.318;6.202;2023-09-19T14:27:26;20.40;1.00
3281;DHT22;1652;51.318;6.202;2023-09-19T14:29:53;20.40;1.00
3281;DHT22;1652;51.318;6.202;2023-09-19T14:32:20;20.30;99.90
3281;DHT22;1652;51.318;6.202;2023-09-19T14:34:47;20.20;99.90
3281;DHT22;1652;51.318;6.202;2023-09-19T14:37:14;20.00;21.90
3281;DHT22;1652;51.318;6.202;2023-09-19T14:39:42;20.00;1.00
3281;DHT22;1652;51.318;6.202;2023-09-19T14:44:40;20.00;99.90
3281;DHT22;1652;51.318;6.202;2023-09-19T14:47:07;20.10;1.00
3281;DHT22;1652;51.318;6.202;2023-09-19T14:49:35;20.00;1.00
3281;DHT22;1652;51.318;6.202;2023-09-19T14:52:08;19.90;1.00
3281;DHT22;1652;51.318;6.202;2023-09-19T14:54:35;20.00;1.00
3281;DHT22;1652;51.318;6.202;2023-09-19T14:57:04;20.10;1.00
3281;DHT22;1652;51.318;6.202;2023-09-19T14:59:32;20.00;99.90
3281;DHT22;1652;51.318;6.202;2023-09-19T15:01:59;20.00;99.90
3281;DHT22;1652;51.318;6.202;2023-09-19T15:04:27;20.10;99.90
3281;DHT22;1652;51.318;6.202;2023-09-19T15:06:54;20.00;1.00
3281;DHT22;1652;51.318;6.202;2023-09-19T15:09:23;20.10;99.90
3281;DHT22;1652;51.318;6.202;2023-09-19T15:11:53;20.20;99.90
3281;DHT22;1652;51.318;6.202;2023-09-19T15:14:23;20.30;99.90
3281;DHT22;1652;51.318;6.202;2023-09-19T15:16:51;20.20;99.90
3281;DHT22;1652;51.318;6.202;2023-09-19T15:19:19;20.30;99.90
3281;DHT22;1652;51.318;6.202;2023-09-19T15:21:46;20.30;99.90
3281;DHT22;1652;51.318;6.202;2023-09-19T15:24:12;20.20;99.90
3281;DHT22;1652;51.318;6.202;2023-09-19T15:26:39;20.30;1.00
3281;DHT22;1652;51.318;6.202;2023-09-19T15:29:06;20.10;1.00
3281;DHT22;1652;51.318;6.202;2023-09-19T15:31:34;20.00;99.90
3281;DHT22;1652;51.318;6.202;2023-09-19T15:34:04;19.80;1.00
3281;DHT22;1652;51.318;6.202;2023-09-19T15:36:32;19.70;1.00
3281;DHT22;1652;51.318;6.202;2023-09-19T15:39:01;19.60;99.90
3281;DHT22;1652;51.318;6.202;2023-09-19T15:41:31;19.60;99.90
3281;DHT22;1652;51.318;6.202;2023-09-19T15:43:59;19.70;1.00
3281;DHT22;1652;51.318;6.202;2023-09-19T15:46:29;20.00;99.90
3281;DHT22;1652;51.318;6.202;2023-09-19T15:48:57;20.20;1.00
3281;DHT22;1652;51.318;6.202;2023-09-19T15:51:24;20.30;99.90
3281;DHT22;1652;51.318;6.202;2023-09-19T15:53:52;20.30;99.90
3281;DHT22;1652;51.318;6.202;2023-09-19T15:56:20;20.20;99.90
3281;DHT22;1652;51.318;6.202;2023-09-19T15:58:51;20.30;1.00
3281;DHT22;1652;51.318;6.202;2023-09-19T16:01:19;20.20;99.90
3281;DHT22;1652;51.318;6.202;2023-09-19T16:03:51;20.10;99.90
3281;DHT22;1652;51.318;6.202;2023-09-19T16:06:29;20.10;1.00
3281;DHT22;1652;51.318;6.202;2023-09-19T16:08:58;19.90;1.00
3281;DHT22;1652;51.318;6.202;2023-09-19T16:11:26;19.80;1.00
3281;DHT22;1652;51.318;6.202;2023-09-19T16:13:54;19.80;1.00
3281;DHT22;1652;51.318;6.202;2023-09-19T16:16:22;19.70;99.90
3281;DHT22;1652;51.318;6.202;2023-09-19T16:18:52;19.60;58.70
3281;DHT22;1652;51.318;6.202;2023-09-19T16:21:19;19.50;99.90
3281;DHT22;1652;51.318;6.202;2023-09-19T16:23:50;19.40;1.00
3281;DHT22;1652;51.318;6.202;2023-09-19T16:26:18;19.40;1.00
3281;DHT22;1652;51.318;6.202;2023-09-19T16:28:49;19.30;82.60
3281;DHT22;1652;51.318;6.202;2023-09-19T16:31:17;19.30;1.00
3281;DHT22;1652;51.318;6.202;2023-09-19T16:33:45;19.40;98.10
3281;DHT22;1652;51.318;6.202;2023-09-19T16:36:14;19.40;99.90
3281;DHT22;1652;51.318;6.202;2023-09-19T16:38:43;19.40;1.00
3281;DHT22;1652;51.318;6.202;2023-09-19T16:41:11;19.40;67.20
3281;DHT22;1652;51.318;6.202;2023-09-19T16:43:39;19.40;99.90
3281;DHT22;1652;51.318;6.202;2023-09-19T16:46:07;19.40;1.00
3281;DHT22;1652;51.318;6.202;2023-09-19T16:48:39;19.40;1.00
3281;DHT22;1652;51.318;6.202;2023-09-19T16:51:26;19.40;1.00
3281;DHT22;1652;51.318;6.202;2023-09-19T16:53:54;19.30;99.90
3281;DHT22;1652;51.318;6.202;2023-09-19T16:56:21;19.30;99.90
3281;DHT22;1652;51.318;6.202;2023-09-19T16:58:49;19.30;1.00
3281;DHT22;1652;51.318;6.202;2023-09-19T17:01:20;19.20;99.90
3281;DHT22;1652;51.318;6.202;2023-09-19T17:03:51;19.30;1.00
3281;DHT22;1652;51.318;6.202;2023-09-19T17:06:19;19.20;1.00
3281;DHT22;1652;51.318;6.202;2023-09-19T17:08:49;19.20;1.00
3281;DHT22;1652;51.318;6.202;2023-09-19T17:11:17;19.20;1.00
3281;DHT22;1652;51.318;6.202;2023-09-19T17:13:46;19.20;1.00
3281;DHT22;1652;51.318;6.202;2023-09-19T17:16:15;19.10;1.00